createdAt,value
2022-12-01T00:00:34.972Z,93751.63
2022-12-01T00:03:38.528Z,93731.81
2022-12-01T00:06:42.510Z,93740.72
2022-12-01T00:10:04.245Z,93734.28
2022-12-01T00:13:08.343Z,93742.72
2022-12-01T00:16:16.818Z,93724.09
2022-12-01T00:19:20.198Z,93730.53
2022-12-01T00:22:23.141Z,93723.59
2022-12-01T00:25:28.901Z,93720.34
2022-12-01T00:28:32.661Z,93709.69
2022-12-01T00:31:36.601Z,93706.19
2022-12-01T00:34:40.058Z,93703.94
2022-12-01T00:37:44.754Z,93712.56
2022-12-01T00:40:48.337Z,93717.91
2022-12-01T00:43:52.952Z,93718.41
2022-12-01T00:46:56.620Z,93716.38
2022-12-01T00:50:00.126Z,93718.13
2022-12-01T00:53:03.681Z,93722.81
2022-12-01T00:56:07.371Z,93717.50
2022-12-01T00:59:10.964Z,93702.13
2022-12-01T01:02:14.875Z,93692.84
2022-12-01T01:05:18.575Z,93687.31
2022-12-01T01:08:22.887Z,93691.22
2022-12-01T01:11:26.548Z,93684.72
2022-12-01T01:14:30.569Z,93690.84
2022-12-01T01:17:34.292Z,93682.34
2022-12-01T01:20:38.251Z,93676.91
2022-12-01T01:23:42.119Z,93679.63
2022-12-01T01:26:46.102Z,93686.22
2022-12-01T01:29:49.915Z,93677.97
2022-12-01T01:32:53.935Z,93681.22
2022-12-01T01:36:00.617Z,93678.91
2022-12-01T01:39:04.749Z,93684.03
2022-12-01T01:42:14.579Z,93678.69
2022-12-01T01:45:26.280Z,93674.34
2022-12-01T01:48:29.629Z,93676.25
2022-12-01T01:51:43.434Z,93677.94
2022-12-01T01:54:50.053Z,93670.97
2022-12-01T01:57:53.211Z,93664.38
2022-12-01T02:00:57.117Z,93663.69
2022-12-01T02:04:00.738Z,93650.84
2022-12-01T02:07:05.734Z,93654.22
2022-12-01T02:10:13.614Z,93639.28
2022-12-01T02:13:40.932Z,93638.34
2022-12-01T02:16:50.726Z,93637.19
2022-12-01T02:20:28.037Z,93635.69
2022-12-01T02:23:52.266Z,93632.75
2022-12-01T02:27:13.993Z,93651.63
2022-12-01T02:30:50.226Z,93653.78
2022-12-01T02:33:59.361Z,93654.69
2022-12-01T02:37:34.030Z,93646.66
2022-12-01T02:40:40.930Z,93655.78
2022-12-01T02:43:56.500Z,93656.69
2022-12-01T02:47:20.233Z,93654.28
2022-12-01T02:50:26.097Z,93653.69
2022-12-01T02:53:29.786Z,93646.53
2022-12-01T02:56:33.641Z,93645.75
2022-12-01T02:59:37.131Z,93640.09
2022-12-01T03:02:51.075Z,93636.31
2022-12-01T03:06:23.886Z,93630.56
2022-12-01T03:09:44.764Z,93625.41
2022-12-01T03:13:03.101Z,93623.59
2022-12-01T03:16:11.025Z,93612.34
2022-12-01T03:19:21.561Z,93594.25
2022-12-01T03:22:34.531Z,93592.91
2022-12-01T03:25:40.553Z,93592.47
2022-12-01T03:29:01.235Z,93593.50
2022-12-01T03:32:18.357Z,93582.28
2022-12-01T03:35:28.006Z,93580.41
2022-12-01T03:38:34.084Z,93586.00
2022-12-01T03:41:43.719Z,93591.50
2022-12-01T03:44:51.307Z,93577.06
2022-12-01T03:47:55.627Z,93577.53
2022-12-01T03:51:22.605Z,93562.97
2022-12-01T03:54:41.977Z,93578.44
2022-12-01T03:58:04.898Z,93549.59
2022-12-01T04:01:10.049Z,93543.59
2022-12-01T04:04:15.374Z,93545.03
2022-12-01T04:07:19.780Z,93544.00
2022-12-01T04:10:23.270Z,93538.75
2022-12-01T04:13:27.704Z,93529.16
2022-12-01T04:16:31.351Z,93529.31
2022-12-01T04:19:35.013Z,93523.88
2022-12-01T04:22:38.612Z,93523.88
2022-12-01T04:25:41.755Z,93522.81
2022-12-01T04:28:45.352Z,93513.88
2022-12-01T04:31:48.650Z,93518.72
2022-12-01T04:34:51.840Z,93513.56
2022-12-01T04:37:54.725Z,93506.66
2022-12-01T04:40:57.571Z,93512.72
2022-12-01T04:44:01.646Z,93507.09
2022-12-01T04:47:06.371Z,93507.38
2022-12-01T04:50:10.878Z,93505.03
2022-12-01T04:53:13.819Z,93503.28
2022-12-01T04:56:17.367Z,93480.94
2022-12-01T04:59:20.760Z,93472.41
2022-12-01T05:02:25.508Z,93477.22
2022-12-01T05:05:29.144Z,93465.19
2022-12-01T05:08:33.307Z,93462.69
2022-12-01T05:11:38.163Z,93459.91
2022-12-01T05:14:42.185Z,93457.69
2022-12-01T05:17:45.746Z,93449.16
2022-12-01T05:20:59.399Z,93448.47
2022-12-01T05:24:02.928Z,93448.56
2022-12-01T05:27:06.814Z,93442.38
2022-12-01T05:30:10.292Z,93445.50
2022-12-01T05:33:14.331Z,93442.13
2022-12-01T05:36:17.753Z,93446.53
2022-12-01T05:39:20.934Z,93430.94
2022-12-01T05:42:24.730Z,93427.72
2022-12-01T05:45:28.323Z,93424.66
2022-12-01T05:48:31.176Z,93417.72
2022-12-01T05:51:34.433Z,93414.19
2022-12-01T05:54:37.735Z,93415.94
2022-12-01T05:57:40.596Z,93411.56
2022-12-01T06:00:45.991Z,93418.47
2022-12-01T06:03:49.672Z,93411.84
2022-12-01T06:06:53.345Z,93401.09
2022-12-01T06:09:56.859Z,93396.56
2022-12-01T06:12:59.656Z,93401.88
2022-12-01T06:16:07.436Z,93395.84
2022-12-01T06:19:10.925Z,93382.91
2022-12-01T06:22:14.002Z,93390.09
2022-12-01T06:25:17.351Z,93378.34
2022-12-01T06:28:20.357Z,93378.66
2022-12-01T06:31:23.953Z,93369.41
2022-12-01T06:34:27.790Z,93379.94
2022-12-01T06:37:30.617Z,93371.75
2022-12-01T06:40:33.563Z,93365.44
2022-12-01T06:43:41.014Z,93368.38
2022-12-01T06:46:45.093Z,93366.44
2022-12-01T06:49:48.167Z,93354.41
2022-12-01T06:52:53.545Z,93353.38
2022-12-01T06:56:05.903Z,93349.44
2022-12-01T06:59:10.273Z,93346.19
2022-12-01T07:02:14.457Z,93334.44
2022-12-01T07:05:18.463Z,93330.66
2022-12-01T07:08:21.382Z,93332.22
2022-12-01T07:11:25.347Z,93322.66
2022-12-01T07:14:29.192Z,93325.34
2022-12-01T07:17:33.184Z,93316.81
2022-12-01T07:20:36.788Z,93317.44
2022-12-01T07:23:40.676Z,93308.63
2022-12-01T07:26:44.486Z,93318.16
2022-12-01T07:29:48.197Z,93322.44
2022-12-01T07:32:52.519Z,93302.69
2022-12-01T07:35:56.050Z,93302.47
2022-12-01T07:38:59.477Z,93307.25
2022-12-01T07:42:03.413Z,93301.41
2022-12-01T07:45:07.311Z,93299.47
2022-12-01T07:48:10.771Z,93300.38
2022-12-01T07:51:19.289Z,93291.84
2022-12-01T07:54:22.973Z,93294.63
2022-12-01T07:57:26.107Z,93295.81
2022-12-01T08:00:29.761Z,93288.78
2022-12-01T08:03:33.616Z,93294.03
2022-12-01T08:06:36.902Z,93287.16
2022-12-01T08:09:40.470Z,93279.22
2022-12-01T08:12:43.973Z,93279.53
2022-12-01T08:15:47.399Z,93282.03
2022-12-01T08:18:51.758Z,93277.59
2022-12-01T08:21:55.628Z,93268.63
2022-12-01T08:24:59.216Z,93269.66
2022-12-01T08:28:03.249Z,93273.78
2022-12-01T08:31:32.524Z,93269.03
2022-12-01T08:34:39.597Z,93263.59
2022-12-01T08:37:42.555Z,93267.28
2022-12-01T08:40:46.406Z,93250.72
2022-12-01T08:43:58.013Z,93244.22
2022-12-01T08:47:02.540Z,93244.69
2022-12-01T08:50:06.856Z,93245.00
2022-12-01T08:53:10.319Z,93235.44
2022-12-01T08:56:20.249Z,93245.88
2022-12-01T08:59:24.196Z,93238.44
2022-12-01T09:02:27.921Z,93236.38
2022-12-01T09:05:32.048Z,93239.28
2022-12-01T09:08:36.368Z,93233.00
2022-12-01T09:11:40.656Z,93238.28
